createdAt,value
2022-11-19T00:01:32.940Z,8.07
2022-11-19T00:04:00.656Z,8.08
2022-11-19T00:06:28.201Z,8.06
2022-11-19T00:08:55.670Z,8.09
2022-11-19T00:11:44.981Z,8.10
2022-11-19T00:14:14.270Z,8.08
2022-11-19T00:16:44.085Z,8.06
2022-11-19T00:19:12.385Z,8.08
2022-11-19T00:21:39.757Z,8.09
2022-11-19T00:24:08.224Z,8.09
2022-11-19T00:26:35.659Z,8.08
2022-11-19T00:29:03.788Z,8.08
2022-11-19T00:31:32.013Z,8.08
2022-11-19T00:33:59.665Z,8.08
2022-11-19T00:36:27.057Z,8.08
2022-11-19T00:38:55.373Z,8.05
2022-11-19T00:41:23.167Z,8.02
2022-11-19T00:43:50.674Z,8.04
2022-11-19T00:46:29.850Z,8.05
2022-11-19T00:48:59.966Z,8.04
2022-11-19T00:51:29.769Z,8.06
2022-11-19T00:53:57.805Z,8.06
2022-11-19T00:56:26.671Z,8.01
2022-11-19T00:58:55.254Z,8.06
2022-11-19T01:01:25.014Z,8.02
2022-11-19T01:03:53.437Z,8.00
2022-11-19T01:06:23.274Z,7.96
2022-11-19T01:08:51.969Z,7.95
2022-11-19T01:11:21.829Z,7.92
2022-11-19T01:13:50.534Z,7.90
2022-11-19T01:16:33.885Z,7.89
2022-11-19T01:19:02.535Z,7.90
2022-11-19T01:21:32.319Z,7.84
2022-11-19T01:24:00.689Z,7.82
2022-11-19T01:26:29.230Z,7.79
2022-11-19T01:28:57.003Z,7.77
2022-11-19T01:31:29.454Z,7.77
2022-11-19T01:33:57.391Z,7.79
2022-11-19T01:36:27.386Z,7.78
2022-11-19T01:38:55.396Z,7.76
2022-11-19T01:41:28.981Z,7.78
2022-11-19T01:44:05.093Z,7.76
2022-11-19T01:46:38.665Z,7.76
2022-11-19T01:49:12.648Z,7.73
2022-11-19T01:51:55.878Z,7.73
2022-11-19T01:54:28.343Z,7.72
2022-11-19T01:57:00.436Z,7.67
2022-11-19T01:59:30.715Z,7.67
2022-11-19T02:01:58.412Z,7.66
2022-11-19T02:04:27.655Z,7.64
2022-11-19T02:06:56.179Z,7.63
2022-11-19T02:09:27.449Z,7.66
2022-11-19T02:12:02.459Z,7.69
2022-11-19T02:14:33.171Z,7.66
2022-11-19T02:17:28.446Z,7.67
2022-11-19T02:20:33.377Z,7.69
2022-11-19T02:23:30.926Z,7.67
2022-11-19T02:26:32.334Z,7.60
2022-11-19T02:29:25.972Z,7.63
2022-11-19T02:32:05.667Z,7.57
2022-11-19T02:34:54.922Z,7.61
2022-11-19T02:37:38.374Z,7.62
2022-11-19T02:40:09.486Z,7.64
2022-11-19T02:43:02.147Z,7.69
2022-11-19T02:45:37.790Z,7.67
2022-11-19T02:48:23.893Z,7.67
2022-11-19T02:50:59.786Z,7.64
2022-11-19T02:53:27.257Z,7.61
2022-11-19T02:56:13.726Z,7.65
2022-11-19T02:59:06.662Z,7.68
2022-11-19T03:01:55.002Z,7.63
2022-11-19T03:04:30.777Z,7.65
2022-11-19T03:07:06.480Z,7.58
2022-11-19T03:09:39.000Z,7.60
2022-11-19T03:12:21.614Z,7.59
2022-11-19T03:15:19.794Z,7.59
2022-11-19T03:18:16.707Z,7.58
2022-11-19T03:21:01.709Z,7.52
2022-11-19T03:23:37.701Z,7.51
2022-11-19T03:26:12.879Z,7.53
2022-11-19T03:28:41.914Z,7.61
2022-11-19T03:31:10.986Z,7.58
2022-11-19T03:33:47.962Z,7.53
2022-11-19T03:36:21.837Z,7.55
2022-11-19T03:38:52.592Z,7.55
2022-11-19T03:41:22.993Z,7.65
2022-11-19T03:43:58.824Z,7.67
2022-11-19T03:46:30.471Z,7.69
2022-11-19T03:48:59.623Z,7.62
2022-11-19T03:51:43.999Z,7.70
2022-11-19T03:54:11.555Z,7.71
2022-11-19T03:56:41.627Z,7.77
2022-11-19T03:59:11.373Z,7.69
2022-11-19T04:01:39.984Z,7.71
2022-11-19T04:04:26.214Z,7.69
2022-11-19T04:06:54.782Z,7.72
2022-11-19T04:09:22.686Z,7.76
2022-11-19T04:14:16.474Z,7.67
2022-11-19T04:16:44.176Z,7.67
2022-11-19T04:19:11.701Z,7.73
2022-11-19T04:21:39.119Z,7.71
2022-11-19T04:24:07.266Z,7.66
2022-11-19T04:26:34.647Z,7.70
2022-11-19T04:29:02.142Z,7.69
2022-11-19T04:31:29.959Z,7.66
2022-11-19T04:33:57.331Z,7.66
2022-11-19T04:36:24.705Z,7.57
2022-11-19T04:38:52.425Z,7.51
2022-11-19T04:41:19.854Z,7.47
2022-11-19T04:43:47.298Z,7.54
2022-11-19T04:46:15.009Z,7.58
2022-11-19T04:48:42.475Z,7.64
2022-11-19T04:51:10.068Z,7.63
2022-11-19T04:53:38.037Z,7.67
2022-11-19T04:56:06.293Z,7.68
2022-11-19T04:58:34.118Z,7.68
2022-11-19T05:01:01.954Z,7.67
2022-11-19T05:03:29.505Z,7.64
2022-11-19T05:05:56.917Z,7.73
2022-11-19T05:08:25.036Z,7.69
2022-11-19T05:10:52.475Z,7.64
2022-11-19T05:13:20.082Z,7.68
2022-11-19T05:15:47.791Z,7.75
2022-11-19T05:18:15.279Z,7.78
2022-11-19T05:20:42.726Z,7.79
2022-11-19T05:23:10.635Z,7.85
2022-11-19T05:25:38.086Z,7.87
2022-11-19T05:28:05.907Z,7.79
2022-11-19T05:30:33.581Z,7.74
2022-11-19T05:33:01.120Z,7.81
2022-11-19T05:35:28.617Z,7.78
2022-11-19T05:37:56.371Z,7.76
2022-11-19T05:40:24.103Z,7.72
2022-11-19T05:42:51.538Z,7.71
2022-11-19T05:45:19.290Z,7.76
2022-11-19T05:47:48.738Z,7.75
2022-11-19T05:50:16.583Z,7.75
2022-11-19T05:52:44.251Z,7.72
2022-11-19T05:55:11.651Z,7.75
2022-11-19T05:57:39.063Z,7.66
2022-11-19T06:00:08.029Z,7.66
2022-11-19T06:02:39.744Z,7.62
2022-11-19T06:05:07.961Z,7.62
2022-11-19T06:07:35.392Z,7.65
2022-11-19T06:10:03.043Z,7.73
2022-11-19T06:12:30.749Z,7.78
2022-11-19T06:14:58.227Z,7.82
2022-11-19T06:17:25.607Z,7.78
2022-11-19T06:19:53.250Z,7.72
2022-11-19T06:22:20.693Z,7.68
2022-11-19T06:24:48.076Z,7.61
2022-11-19T06:27:15.766Z,7.64
2022-11-19T06:29:43.576Z,7.59
2022-11-19T06:32:11.654Z,7.62
2022-11-19T06:34:39.350Z,7.65
2022-11-19T06:37:06.783Z,7.66
2022-11-19T06:39:34.201Z,7.61
2022-11-19T06:42:20.533Z,7.57
2022-11-19T06:44:47.979Z,7.58
2022-11-19T06:47:15.697Z,7.57
2022-11-19T06:49:43.066Z,7.54
2022-11-19T06:52:10.462Z,7.54
2022-11-19T06:54:42.804Z,7.57
2022-11-19T06:57:10.871Z,7.46
2022-11-19T06:59:39.306Z,7.43
2022-11-19T07:02:08.380Z,7.40
2022-11-19T07:04:35.853Z,7.49
2022-11-19T07:07:04.459Z,7.51
2022-11-19T07:09:32.184Z,7.61
2022-11-19T07:11:59.651Z,7.64
2022-11-19T07:14:27.492Z,7.58
2022-11-19T07:16:56.279Z,7.61
2022-11-19T07:19:23.685Z,7.57
2022-11-19T07:21:51.420Z,7.67
2022-11-19T07:24:19.375Z,7.73
2022-11-19T07:26:46.870Z,7.72
2022-11-19T07:29:15.602Z,7.79
2022-11-19T07:31:43.361Z,7.86
2022-11-19T07:34:11.515Z,7.86
2022-11-19T07:36:39.275Z,7.83
2022-11-19T07:39:06.751Z,7.88
2022-11-19T07:41:53.083Z,7.87
2022-11-19T07:44:20.853Z,7.93
2022-11-19T07:46:48.279Z,7.91
2022-11-19T07:49:15.744Z,7.85
2022-11-19T07:51:44.755Z,7.90
2022-11-19T07:54:14.236Z,7.90
2022-11-19T07:56:41.776Z,7.95
2022-11-19T07:59:10.205Z,7.90
2022-11-19T08:01:38.650Z,7.96
2022-11-19T08:04:06.445Z,7.98
2022-11-19T08:06:34.866Z,7.97
2022-11-19T08:09:04.087Z,7.94
2022-11-19T08:11:32.106Z,8.00
2022-11-19T08:14:02.839Z,7.99
2022-11-19T08:16:51.066Z,8.02
2022-11-19T08:19:19.281Z,8.07
2022-11-19T08:21:47.621Z,8.03
2022-11-19T08:24:18.570Z,8.09
2022-11-19T08:26:47.244Z,8.08
2022-11-19T08:29:16.889Z,8.13
2022-11-19T08:31:46.731Z,8.09
2022-11-19T08:34:15.614Z,8.02
2022-11-19T08:36:43.551Z,8.07
2022-11-19T08:39:11.289Z,8.08
2022-11-19T08:41:57.793Z,8.20
2022-11-19T08:44:25.521Z,8.25
2022-11-19T08:46:53.286Z,9.12
2022-11-19T08:49:20.727Z,10.70
2022-11-19T08:51:48.215Z,11.82
2022-11-19T08:54:15.971Z,11.75
2022-11-19T08:56:43.422Z,10.91
2022-11-19T08:59:10.883Z,10.46
2022-11-19T09:01:39.417Z,9.84
2022-11-19T09:04:06.849Z,9.52
2022-11-19T09:06:35.180Z,9.85
2022-11-19T09:09:04.587Z,9.33
2022-11-19T09:11:32.343Z,9.09
2022-11-19T09:13:59.754Z,9.08
2022-11-19T09:16:27.574Z,8.92
2022-11-19T09:18:55.063Z,8.72
2022-11-19T09:21:22.517Z,8.67
2022-11-19T09:23:50.261Z,8.52
2022-11-19T09:26:18.701Z,8.58
2022-11-19T09:28:46.818Z,8.53
2022-11-19T09:31:16.825Z,8.47
2022-11-19T09:33:47.023Z,8.55
2022-11-19T09:36:16.316Z,8.61
2022-11-19T09:38:44.148Z,8.57
2022-11-19T09:41:55.966Z,8.52
2022-11-19T09:44:40.597Z,8.54
2022-11-19T09:47:39.166Z,8.56
2022-11-19T09:50:20.630Z,8.34
2022-11-19T09:53:13.843Z,8.35
2022-11-19T09:55:45.209Z,8.38
2022-11-19T09:58:36.778Z,8.40
2022-11-19T10:01:04.701Z,8.39
2022-11-19T10:03:33.969Z,8.31
2022-11-19T10:06:08.646Z,8.25
2022-11-19T10:08:50.102Z,8.24
2022-11-19T10:11:46.694Z,8.17
2022-11-19T10:14:45.445Z,8.08
2022-11-19T10:17:21.345Z,7.99
2022-11-19T10:20:04.070Z,7.88
2022-11-19T10:22:57.711Z,7.90
2022-11-19T10:25:36.028Z,8.25
2022-11-19T10:28:19.513Z,9.11
2022-11-19T10:30:55.418Z,8.80
2022-11-19T10:33:42.307Z,8.68
2022-11-19T10:36:17.102Z,8.47
2022-11-19T10:39:04.009Z,8.32
2022-11-19T10:41:42.508Z,8.29
2022-11-19T10:44:40.119Z,8.29
2022-11-19T10:47:15.267Z,8.23
2022-11-19T10:49:43.558Z,8.15
2022-11-19T10:52:22.731Z,8.12
2022-11-19T10:54:55.384Z,8.16
2022-11-19T10:57:24.082Z,8.21
2022-11-19T10:59:53.894Z,8.05
2022-11-19T11:02:40.341Z,8.04
2022-11-19T11:05:14.539Z,8.13
2022-11-19T11:07:56.687Z,8.09
2022-11-19T11:10:37.491Z,8.13
2022-11-19T11:13:35.287Z,8.12
2022-11-19T11:16:13.658Z,8.13
2022-11-19T11:18:41.496Z,8.00
2022-11-19T11:21:24.622Z,8.02
2022-11-19T11:23:53.937Z,8.07
2022-11-19T11:26:27.415Z,8.03
2022-11-19T11:29:12.837Z,8.00
2022-11-19T11:31:43.190Z,8.00
2022-11-19T11:34:25.902Z,8.06
2022-11-19T11:36:54.581Z,8.11
2022-11-19T11:39:28.877Z,8.00
2022-11-19T11:42:05.888Z,8.12
2022-11-19T11:44:47.716Z,8.15
2022-11-19T11:47:19.391Z,8.06
2022-11-19T11:50:05.465Z,8.01
2022-11-19T11:52:53.963Z,8.10
2022-11-19T11:55:24.362Z,8.21
2022-11-19T11:58:03.925Z,8.25
2022-11-19T12:00:33.590Z,8.29
2022-11-19T12:03:02.515Z,8.20
2022-11-19T12:05:44.235Z,8.21
2022-11-19T12:08:32.710Z,8.25
2022-11-19T12:11:09.836Z,8.30
2022-11-19T12:14:04.292Z,8.37
2022-11-19T12:17:00.130Z,8.40
2022-11-19T12:19:41.256Z,8.45
2022-11-19T12:22:26.556Z,8.47
2022-11-19T12:25:00.010Z,8.43
2022-11-19T12:27:52.250Z,8.52
2022-11-19T12:30:22.846Z,8.33
2022-11-19T12:33:34.613Z,8.17
2022-11-19T12:36:59.306Z,8.26
2022-11-19T12:39:59.134Z,8.25
2022-11-19T12:42:58.395Z,8.20
2022-11-19T12:45:37.504Z,8.19
2022-11-19T12:48:05.142Z,8.12
2022-11-19T12:50:50.707Z,8.23
2022-11-19T12:53:42.402Z,8.27
2022-11-19T12:56:28.061Z,8.35
2022-11-19T12:58:55.662Z,8.40
2022-11-19T13:01:31.022Z,8.40
2022-11-19T13:04:18.712Z,8.37
2022-11-19T13:06:56.196Z,8.41
2022-11-19T13:09:36.089Z,8.25
2022-11-19T13:12:08.339Z,8.26
2022-11-19T13:14:54.835Z,8.11
2022-11-19T13:17:41.288Z,8.08
2022-11-19T13:20:18.986Z,8.08
2022-11-19T13:22:49.541Z,8.13
2022-11-19T13:25:39.068Z,7.95
2022-11-19T13:28:18.774Z,7.90
2022-11-19T13:30:50.858Z,7.94
2022-11-19T13:33:25.138Z,7.88
2022-11-19T13:36:06.177Z,7.78
2022-11-19T13:38:46.553Z,7.70
2022-11-19T13:41:32.633Z,7.65
2022-11-19T13:44:18.739Z,7.70
2022-11-19T13:46:53.573Z,7.56
2022-11-19T13:49:59.534Z,7.41
2022-11-19T13:52:34.206Z,7.47
2022-11-19T13:55:02.099Z,7.35
2022-11-19T13:57:34.666Z,7.27
2022-11-19T14:00:05.802Z,7.25
2022-11-19T14:02:57.211Z,7.23
2022-11-19T14:05:30.950Z,7.18
2022-11-19T14:08:20.327Z,7.18
2022-11-19T14:11:13.157Z,7.20
2022-11-19T14:13:54.114Z,7.23
2022-11-19T14:16:51.168Z,7.12
2022-11-19T14:19:22.269Z,7.06
2022-11-19T14:22:11.994Z,7.11
2022-11-19T14:24:58.011Z,7.05
2022-11-19T14:27:29.321Z,6.98
2022-11-19T14:30:25.942Z,6.89
2022-11-19T14:32:53.762Z,6.83
2022-11-19T14:35:29.794Z,6.77
2022-11-19T14:38:13.747Z,6.69
2022-11-19T14:40:44.071Z,6.71
2022-11-19T14:43:30.284Z,6.68
2022-11-19T14:46:08.752Z,6.57
2022-11-19T14:48:39.313Z,6.73
2022-11-19T14:51:16.899Z,6.62
2022-11-19T14:53:56.052Z,6.56
2022-11-19T14:56:24.279Z,6.54
2022-11-19T14:58:55.748Z,6.44
2022-11-19T15:01:24.457Z,6.35
2022-11-19T15:04:06.741Z,6.38
2022-11-19T15:06:36.910Z,6.45
2022-11-19T15:09:05.206Z,6.43
2022-11-19T15:11:57.653Z,6.33
2022-11-19T15:14:28.418Z,6.46
2022-11-19T15:16:58.912Z,6.41
2022-11-19T15:19:39.921Z,6.46
2022-11-19T15:22:16.102Z,6.54
2022-11-19T15:25:09.925Z,6.57
2022-11-19T15:27:43.885Z,6.52
2022-11-19T15:30:24.254Z,6.45
2022-11-19T15:33:43.956Z,6.48
2022-11-19T15:36:28.670Z,6.46
2022-11-19T15:39:23.282Z,6.48
2022-11-19T15:42:00.855Z,6.41
2022-11-19T15:44:37.346Z,6.54
2022-11-19T15:47:12.878Z,6.55
2022-11-19T15:49:42.173Z,6.48
2022-11-19T15:52:32.006Z,6.54
2022-11-19T15:55:18.387Z,6.48
2022-11-19T15:57:50.186Z,6.48
2022-11-19T16:00:23.086Z,6.51
2022-11-19T16:02:52.841Z,6.49
2022-11-19T16:05:29.657Z,6.43
2022-11-19T16:08:05.805Z,6.37
2022-11-19T16:10:41.294Z,6.37
2022-11-19T16:13:45.198Z,6.41
2022-11-19T16:16:49.357Z,6.39
2022-11-19T16:19:18.483Z,6.46
2022-11-19T16:21:55.487Z,6.43
2022-11-19T16:25:03.553Z,6.46
2022-11-19T16:27:31.782Z,6.41
2022-11-19T16:29:59.548Z,6.36
2022-11-19T16:32:27.828Z,6.31
2022-11-19T16:35:08.988Z,6.27
2022-11-19T16:37:37.314Z,6.26
2022-11-19T16:40:06.064Z,6.22
2022-11-19T16:42:33.988Z,6.26
2022-11-19T16:45:17.498Z,6.28
2022-11-19T16:48:02.425Z,6.25
2022-11-19T16:50:36.141Z,6.30
2022-11-19T16:53:08.457Z,6.26
2022-11-19T16:55:42.884Z,6.33
2022-11-19T16:58:19.366Z,6.32
2022-11-19T17:00:50.582Z,6.34
2022-11-19T17:03:26.048Z,6.32
2022-11-19T17:05:54.350Z,6.33
2022-11-19T17:08:30.996Z,6.27
2022-11-19T17:11:32.601Z,6.31
2022-11-19T17:14:20.787Z,6.34
2022-11-19T17:16:51.234Z,6.35
2022-11-19T17:19:39.662Z,6.32
2022-11-19T17:22:17.839Z,6.32
2022-11-19T17:24:46.534Z,6.30
2022-11-19T17:27:33.161Z,6.21
2022-11-19T17:30:01.970Z,6.27
2022-11-19T17:32:41.549Z,6.25
2022-11-19T17:35:29.936Z,6.14
2022-11-19T17:38:17.863Z,6.18
2022-11-19T17:40:48.503Z,6.14
2022-11-19T17:43:39.482Z,6.14
2022-11-19T17:46:06.932Z,6.12
2022-11-19T17:48:35.093Z,6.18
2022-11-19T17:51:02.467Z,6.19
2022-11-19T17:53:29.856Z,6.20
2022-11-19T17:55:58.514Z,6.19
2022-11-19T17:58:25.996Z,6.28
2022-11-19T18:00:53.421Z,6.26
2022-11-19T18:03:21.113Z,6.22
2022-11-19T18:05:49.814Z,6.19
2022-11-19T18:08:17.446Z,6.14
2022-11-19T18:10:48.092Z,6.22
2022-11-19T18:13:20.746Z,6.17
2022-11-19T18:15:48.621Z,6.10
2022-11-19T18:18:16.043Z,6.15
2022-11-19T18:20:43.537Z,6.22
2022-11-19T18:23:13.418Z,6.22
2022-11-19T18:25:41.398Z,6.16
2022-11-19T18:28:08.858Z,6.16
2022-11-19T18:30:37.406Z,6.14
2022-11-19T18:33:04.873Z,6.20
2022-11-19T18:35:33.086Z,6.17
2022-11-19T18:38:00.786Z,6.17
2022-11-19T18:40:28.173Z,6.16
2022-11-19T18:43:13.835Z,6.15
2022-11-19T18:45:41.537Z,6.16
2022-11-19T18:48:08.923Z,6.08
2022-11-19T18:50:36.330Z,6.04
2022-11-19T18:53:04.097Z,6.10
2022-11-19T18:55:31.604Z,6.07
2022-11-19T18:57:59.062Z,6.02
2022-11-19T19:00:26.798Z,6.01
2022-11-19T19:02:54.187Z,6.03
2022-11-19T19:05:21.552Z,5.99
2022-11-19T19:07:49.224Z,6.00
2022-11-19T19:10:16.687Z,5.87
2022-11-19T19:12:44.077Z,5.83
2022-11-19T19:15:11.863Z,5.81
2022-11-19T19:17:39.332Z,5.86
2022-11-19T19:20:07.407Z,5.78
2022-11-19T19:22:35.121Z,5.75
2022-11-19T19:25:03.527Z,5.74
2022-11-19T19:27:32.110Z,5.79
2022-11-19T19:30:00.975Z,5.76
2022-11-19T19:32:28.800Z,5.76
2022-11-19T19:34:56.310Z,5.74
2022-11-19T19:37:24.702Z,5.79
2022-11-19T19:39:52.121Z,5.85
2022-11-19T19:42:19.558Z,5.79
2022-11-19T19:44:47.268Z,5.78
2022-11-19T19:47:14.725Z,5.78
2022-11-19T19:49:42.613Z,5.80
2022-11-19T19:52:10.372Z,5.84
2022-11-19T19:54:39.908Z,5.88
2022-11-19T19:57:07.677Z,5.93
2022-11-19T19:59:35.377Z,5.93
2022-11-19T20:02:02.983Z,5.92
2022-11-19T20:04:32.303Z,5.92
2022-11-19T20:06:59.803Z,5.97
2022-11-19T20:09:27.751Z,5.92
2022-11-19T20:11:55.634Z,5.91
2022-11-19T20:14:23.066Z,5.97
2022-11-19T20:16:50.506Z,5.96
2022-11-19T20:19:18.290Z,5.97
2022-11-19T20:21:47.111Z,5.93
2022-11-19T20:24:14.634Z,5.90
2022-11-19T20:26:42.892Z,5.88
2022-11-19T20:29:12.218Z,5.91
2022-11-19T20:31:40.427Z,5.98
2022-11-19T20:34:08.301Z,6.03
2022-11-19T20:36:36.197Z,6.03
2022-11-19T20:39:05.269Z,6.06
2022-11-19T20:41:52.066Z,6.03
2022-11-19T20:44:23.291Z,5.98
2022-11-19T20:46:56.538Z,6.01
2022-11-19T20:49:26.796Z,5.86
2022-11-19T20:51:55.538Z,5.89
2022-11-19T20:54:24.221Z,5.91
2022-11-19T20:56:52.898Z,5.86
2022-11-19T20:59:21.558Z,5.87
2022-11-19T21:01:50.712Z,5.82
2022-11-19T21:04:19.710Z,5.76
2022-11-19T21:06:47.739Z,5.76
2022-11-19T21:09:16.020Z,5.79
2022-11-19T21:11:44.052Z,5.75
2022-11-19T21:14:12.149Z,5.65
2022-11-19T21:16:39.596Z,5.75
2022-11-19T21:19:07.101Z,5.73
2022-11-19T21:21:35.550Z,5.81
2022-11-19T21:24:03.320Z,5.78
2022-11-19T21:26:30.902Z,5.77
2022-11-19T21:28:59.412Z,5.74
2022-11-19T21:31:39.178Z,5.72
2022-11-19T21:34:12.771Z,5.67
2022-11-19T21:36:41.857Z,5.70
2022-11-19T21:39:10.769Z,5.68
2022-11-19T21:41:38.374Z,5.64
2022-11-19T21:44:06.582Z,5.73
2022-11-19T21:46:34.805Z,5.66
2022-11-19T21:49:02.537Z,5.68
2022-11-19T21:51:30.323Z,5.58
2022-11-19T21:53:58.713Z,5.55
2022-11-19T21:56:27.521Z,5.64
2022-11-19T21:58:54.938Z,5.58
2022-11-19T22:01:22.698Z,5.56
2022-11-19T22:03:50.405Z,5.58
2022-11-19T22:06:17.845Z,5.50
2022-11-19T22:08:45.283Z,5.60
2022-11-19T22:11:28.720Z,5.52
2022-11-19T22:14:02.784Z,5.56
2022-11-19T22:16:32.898Z,5.48
2022-11-19T22:19:00.542Z,5.41
2022-11-19T22:21:29.329Z,5.43
2022-11-19T22:23:57.840Z,5.44
2022-11-19T22:26:25.697Z,5.42
2022-11-19T22:28:53.064Z,5.42
2022-11-19T22:31:20.923Z,5.40
2022-11-19T22:33:51.518Z,5.47
2022-11-19T22:36:20.613Z,5.48
2022-11-19T22:38:48.653Z,5.47
2022-11-19T22:41:18.712Z,5.44
2022-11-19T22:43:46.385Z,5.34
2022-11-19T22:46:14.949Z,5.33
2022-11-19T22:48:42.871Z,5.24
2022-11-19T22:51:22.075Z,5.17
2022-11-19T22:53:51.088Z,5.17
2022-11-19T22:56:24.000Z,5.15
2022-11-19T22:58:52.830Z,5.07
2022-11-19T23:01:29.869Z,4.96
2022-11-19T23:03:59.979Z,4.91
2022-11-19T23:06:28.004Z,4.91
2022-11-19T23:08:55.822Z,4.88
2022-11-19T23:11:42.544Z,4.86
2022-11-19T23:14:12.894Z,4.83
2022-11-19T23:16:41.723Z,4.80
2022-11-19T23:19:10.719Z,4.74
2022-11-19T23:21:39.178Z,4.75
2022-11-19T23:24:07.762Z,4.77
2022-11-19T23:26:35.245Z,4.72
2022-11-19T23:29:03.062Z,4.70
2022-11-19T23:31:33.378Z,4.69
2022-11-19T23:34:00.795Z,4.66
2022-11-19T23:36:41.675Z,4.63
2022-11-19T23:39:14.782Z,4.59
2022-11-19T23:41:42.581Z,4.63
2022-11-19T23:44:10.301Z,4.61
2022-11-19T23:46:38.082Z,4.65
2022-11-19T23:49:06.090Z,4.70
2022-11-19T23:51:38.208Z,4.64
2022-11-19T23:54:06.481Z,4.69
2022-11-19T23:56:36.062Z,4.69
2022-11-19T23:59:05.458Z,4.74
